createdAt,value
2022-11-21T00:02:05.285Z,100625.44
2022-11-21T00:04:37.305Z,100630.44
2022-11-21T00:07:09.262Z,100626.91
2022-11-21T00:09:41.313Z,100625.34
2022-11-21T00:12:13.249Z,100625.97
2022-11-21T00:14:45.174Z,100626.03
2022-11-21T00:17:17.463Z,100615.88
2022-11-21T00:19:49.377Z,100622.03
2022-11-21T00:22:21.365Z,100617.00
2022-11-21T00:24:54.404Z,100616.13
2022-11-21T00:27:26.467Z,100609.22
2022-11-21T00:29:58.436Z,100612.53
2022-11-21T00:32:30.365Z,100602.06
2022-11-21T00:35:02.548Z,100605.41
2022-11-21T00:37:35.227Z,100610.50
2022-11-21T00:40:07.980Z,100610.41
2022-11-21T00:42:39.929Z,100602.50
2022-11-21T00:45:12.222Z,100602.28
2022-11-21T00:47:44.295Z,100597.78
2022-11-21T00:50:16.249Z,100596.13
2022-11-21T00:52:48.213Z,100596.09
2022-11-21T00:55:20.128Z,100588.56
2022-11-21T00:57:52.225Z,100593.84
2022-11-21T01:00:24.384Z,100592.34
2022-11-21T01:02:56.455Z,100596.78
2022-11-21T01:05:28.451Z,100607.19
2022-11-21T01:08:00.416Z,100605.25
2022-11-21T01:10:32.446Z,100588.81
2022-11-21T01:13:04.485Z,100584.34
2022-11-21T01:15:36.430Z,100599.78
2022-11-21T01:18:08.413Z,100593.00
2022-11-21T01:20:40.699Z,100599.00
2022-11-21T01:23:12.670Z,100599.94
2022-11-21T01:25:44.576Z,100601.56
2022-11-21T01:28:16.551Z,100599.06
2022-11-21T01:30:48.500Z,100603.16
2022-11-21T01:33:20.468Z,100599.63
2022-11-21T01:35:52.430Z,100601.06
2022-11-21T01:38:24.382Z,100598.41
2022-11-21T01:40:56.320Z,100600.09
2022-11-21T01:43:28.305Z,100601.91
2022-11-21T01:46:14.514Z,100599.38
2022-11-21T01:48:54.727Z,100604.56
2022-11-21T01:52:20.421Z,100606.16
2022-11-21T01:55:05.891Z,100601.13
2022-11-21T01:57:42.760Z,100612.34
2022-11-21T02:00:28.634Z,100607.13
2022-11-21T02:03:06.625Z,100615.66
2022-11-21T02:05:40.218Z,100617.31
2022-11-21T02:08:20.112Z,100615.78
2022-11-21T02:11:25.648Z,100612.28
2022-11-21T02:13:57.957Z,100617.41
2022-11-21T02:16:30.093Z,100617.31
2022-11-21T02:19:02.181Z,100618.09
2022-11-21T02:22:05.608Z,100616.13
2022-11-21T02:24:46.411Z,100611.63
2022-11-21T02:27:19.068Z,100614.09
2022-11-21T02:29:51.014Z,100606.38
2022-11-21T02:32:26.307Z,100612.38
2022-11-21T02:34:58.217Z,100615.00
2022-11-21T02:37:31.973Z,100609.75
2022-11-21T02:40:10.637Z,100612.94
2022-11-21T02:42:54.548Z,100613.78
2022-11-21T02:45:42.856Z,100610.34
2022-11-21T02:48:15.393Z,100618.91
2022-11-21T02:50:48.142Z,100615.41
2022-11-21T02:53:20.344Z,100612.91
2022-11-21T02:55:52.248Z,100616.41
2022-11-21T02:58:24.287Z,100608.78
2022-11-21T03:00:56.359Z,100612.94
2022-11-21T03:03:28.347Z,100612.66
2022-11-21T03:06:00.256Z,100617.78
2022-11-21T03:08:32.205Z,100622.16
2022-11-21T03:11:04.227Z,100620.50
2022-11-21T03:13:36.311Z,100621.28
2022-11-21T03:16:08.259Z,100617.78
2022-11-21T03:18:40.209Z,100622.16
2022-11-21T03:21:12.120Z,100611.88
2022-11-21T03:23:44.100Z,100618.66
2022-11-21T03:26:16.028Z,100610.03
2022-11-21T03:28:48.026Z,100621.03
2022-11-21T03:31:19.957Z,100615.94
2022-11-21T03:33:51.895Z,100624.41
2022-11-21T03:36:24.106Z,100624.34
2022-11-21T03:39:00.178Z,100623.47
2022-11-21T03:41:32.292Z,100623.53
2022-11-21T03:44:09.067Z,100621.94
2022-11-21T03:46:45.316Z,100632.28
2022-11-21T03:49:17.607Z,100625.28
2022-11-21T03:51:49.592Z,100622.66
2022-11-21T03:54:21.545Z,100624.34
2022-11-21T03:56:53.493Z,100626.94
2022-11-21T03:59:26.358Z,100623.47
2022-11-21T04:01:58.413Z,100631.13
2022-11-21T04:04:30.645Z,100628.41
2022-11-21T04:07:02.868Z,100628.34
2022-11-21T04:09:34.899Z,100623.94
2022-11-21T04:12:08.048Z,100623.22
2022-11-21T04:14:40.177Z,100622.19
2022-11-21T04:17:12.116Z,100622.28
2022-11-21T04:19:44.072Z,100615.50
2022-11-21T04:22:16.060Z,100617.31
2022-11-21T04:24:48.007Z,100614.69
2022-11-21T04:27:19.957Z,100607.88
2022-11-21T04:29:51.888Z,100610.47
2022-11-21T04:32:23.799Z,100610.38
2022-11-21T04:34:55.771Z,100607.97
2022-11-21T04:37:27.718Z,100610.53
2022-11-21T04:39:59.659Z,100612.22
2022-11-21T04:42:31.710Z,100610.59
2022-11-21T04:45:04.655Z,100604.47
2022-11-21T04:47:38.916Z,100614.75
2022-11-21T04:50:15.215Z,100609.34
2022-11-21T04:52:52.699Z,100610.22
2022-11-21T04:55:29.877Z,100618.78
2022-11-21T04:58:01.880Z,100610.81
2022-11-21T05:00:34.720Z,100633.94
2022-11-21T05:03:07.378Z,100621.75
2022-11-21T05:05:39.321Z,100628.78
2022-11-21T05:08:11.239Z,100627.16
2022-11-21T05:11:02.564Z,100616.88
2022-11-21T05:13:34.490Z,100619.88
2022-11-21T05:16:07.295Z,100613.31
2022-11-21T05:18:39.262Z,100620.75
2022-11-21T05:21:12.937Z,100622.22
2022-11-21T05:23:44.864Z,100626.44
2022-11-21T05:26:16.815Z,100625.63
2022-11-21T05:28:48.823Z,100617.69
2022-11-21T05:31:20.823Z,100620.38
2022-11-21T05:33:52.768Z,100617.97
2022-11-21T05:36:24.731Z,100612.63
2022-11-21T05:38:56.820Z,100613.16
2022-11-21T05:41:28.863Z,100617.69
2022-11-21T05:44:00.805Z,100615.25
2022-11-21T05:46:32.761Z,100611.97
2022-11-21T05:49:04.768Z,100601.75
2022-11-21T05:51:36.879Z,100614.19
2022-11-21T05:54:13.697Z,100608.13
2022-11-21T05:56:45.651Z,100615.00
2022-11-21T05:59:17.556Z,100614.78
2022-11-21T06:02:08.127Z,100612.97
2022-11-21T06:04:40.089Z,100604.41
2022-11-21T06:07:12.080Z,100615.47
2022-11-21T06:09:44.009Z,100615.31
2022-11-21T06:12:15.947Z,100611.69
2022-11-21T06:14:47.883Z,100604.81
2022-11-21T06:17:19.844Z,100617.53
2022-11-21T06:19:52.863Z,100621.94
2022-11-21T06:22:24.784Z,100623.81
2022-11-21T06:24:56.709Z,100617.94
2022-11-21T06:27:30.022Z,100618.09
2022-11-21T06:30:01.992Z,100617.41
2022-11-21T06:32:38.190Z,100610.75
2022-11-21T06:35:10.205Z,100606.44
2022-11-21T06:37:42.137Z,100607.25
2022-11-21T06:40:14.191Z,100601.31
2022-11-21T06:42:46.107Z,100600.53
2022-11-21T06:45:18.012Z,100592.50
2022-11-21T06:47:49.993Z,100592.44
2022-11-21T06:50:22.787Z,100587.22
2022-11-21T06:52:57.560Z,100594.31
2022-11-21T06:55:31.456Z,100599.84
2022-11-21T06:58:03.406Z,100596.47
2022-11-21T07:00:35.439Z,100607.72
2022-11-21T07:03:07.415Z,100607.97
2022-11-21T07:05:39.359Z,100606.91
2022-11-21T07:08:13.484Z,100611.09
2022-11-21T07:11:10.134Z,100622.22
2022-11-21T07:13:37.942Z,100632.59
2022-11-21T07:16:14.317Z,100628.94
2022-11-21T07:18:46.244Z,100632.38
2022-11-21T07:21:18.218Z,100637.13
2022-11-21T07:23:50.215Z,100635.19
2022-11-21T07:26:22.141Z,100632.75
2022-11-21T07:28:54.156Z,100630.69
2022-11-21T07:31:26.086Z,100627.69
2022-11-21T07:33:58.026Z,100624.03
2022-11-21T07:36:32.516Z,100623.38
2022-11-21T07:39:06.552Z,100620.13
2022-11-21T07:41:38.565Z,100605.84
2022-11-21T07:44:10.591Z,100606.72
2022-11-21T07:46:42.563Z,100602.47
2022-11-21T07:49:14.533Z,100608.66
2022-11-21T07:51:46.500Z,100612.97
2022-11-21T07:54:18.486Z,100622.94
2022-11-21T07:56:50.410Z,100627.56
2022-11-21T07:59:22.545Z,100621.34
2022-11-21T08:01:54.506Z,100618.38
2022-11-21T08:04:26.777Z,100624.09
2022-11-21T08:06:58.755Z,100621.19
2022-11-21T08:09:30.739Z,100617.09
2022-11-21T08:12:02.829Z,100619.25
2022-11-21T08:14:34.856Z,100622.13
2022-11-21T08:17:07.599Z,100614.91
2022-11-21T08:19:39.554Z,100623.19
2022-11-21T08:22:11.525Z,100620.91
2022-11-21T08:24:43.575Z,100623.41
2022-11-21T08:27:20.691Z,100625.97
2022-11-21T08:29:52.794Z,100626.19
2022-11-21T08:32:24.784Z,100619.66
2022-11-21T08:34:56.738Z,100624.91
2022-11-21T08:37:31.799Z,100620.38
2022-11-21T08:40:04.272Z,100622.06
2022-11-21T08:42:37.999Z,100623.81
2022-11-21T08:45:10.632Z,100624.19
2022-11-21T08:47:42.881Z,100607.25
2022-11-21T08:50:15.424Z,100617.63
2022-11-21T08:52:47.551Z,100619.34
2022-11-21T08:55:19.617Z,100619.94
2022-11-21T08:57:51.596Z,100620.75
2022-11-21T09:00:23.789Z,100625.94
2022-11-21T09:02:55.831Z,100628.13
2022-11-21T09:05:27.782Z,100624.03
2022-11-21T09:08:00.222Z,100616.78
2022-11-21T09:10:32.168Z,100620.22
2022-11-21T09:13:04.215Z,100612.00
2022-11-21T09:15:54.454Z,100608.06
2022-11-21T09:18:26.366Z,100605.66
2022-11-21T09:20:59.035Z,100609.41
2022-11-21T09:23:31.067Z,100610.63
2022-11-21T09:26:03.077Z,100612.69
2022-11-21T09:28:36.031Z,100602.56
2022-11-21T09:31:08.772Z,100601.91
2022-11-21T09:33:40.745Z,100598.41
2022-11-21T09:36:12.718Z,100594.19
2022-11-21T09:38:44.705Z,100591.63
2022-11-21T09:41:53.432Z,100578.97
2022-11-21T09:47:38.225Z,100578.81
2022-11-21T09:50:13.254Z,100580.25
2022-11-21T09:52:58.170Z,100578.09
2022-11-21T09:55:35.969Z,100582.66
2022-11-21T09:58:40.696Z,100567.63
2022-11-21T10:01:14.113Z,100572.63
2022-11-21T10:03:49.122Z,100577.28
2022-11-21T10:06:36.899Z,100571.44
2022-11-21T10:09:31.888Z,100577.53
2022-11-21T10:12:38.213Z,100569.88
2022-11-21T10:15:34.921Z,100569.31
2022-11-21T10:18:29.378Z,100565.63
2022-11-21T10:21:35.273Z,100560.47
2022-11-21T10:24:22.163Z,100569.06
2022-11-21T10:27:03.241Z,100570.22
2022-11-21T10:29:53.203Z,100557.44
2022-11-21T10:32:37.191Z,100551.53
2022-11-21T10:35:41.874Z,100555.13
2022-11-21T10:38:26.281Z,100550.41
2022-11-21T10:41:15.787Z,100551.94
2022-11-21T10:44:47.717Z,100544.53
2022-11-21T10:47:28.944Z,100555.41
2022-11-21T10:50:09.636Z,100545.28
2022-11-21T10:53:25.371Z,100535.09
2022-11-21T10:56:06.918Z,100524.38
2022-11-21T10:58:45.789Z,100516.50
2022-11-21T11:01:31.865Z,100520.19
2022-11-21T11:04:27.259Z,100506.69
2022-11-21T11:07:34.636Z,100500.00
2022-11-21T11:10:27.984Z,100492.34
2022-11-21T11:16:11.601Z,100480.44
2022-11-21T11:19:17.679Z,100481.34
2022-11-21T11:21:50.759Z,100468.63
2022-11-21T11:24:27.350Z,100467.75
2022-11-21T11:27:02.639Z,100464.41
2022-11-21T11:29:50.824Z,100448.84
2022-11-21T11:32:23.455Z,100450.50
2022-11-21T11:35:14.649Z,100445.06
2022-11-21T11:38:10.550Z,100441.47
2022-11-21T11:40:44.965Z,100437.13
2022-11-21T11:44:01.526Z,100434.31
2022-11-21T11:47:18.688Z,100424.56
2022-11-21T11:50:13.267Z,100432.31
2022-11-21T11:53:17.891Z,100425.31
2022-11-21T11:56:16.371Z,100422.63
2022-11-21T11:59:11.018Z,100417.56
2022-11-21T12:01:56.304Z,100411.56
2022-11-21T12:04:39.535Z,100401.19
2022-11-21T12:08:39.081Z,100403.50
2022-11-21T12:11:34.069Z,100394.03
2022-11-21T12:14:40.468Z,100390.50
2022-11-21T12:17:16.020Z,100388.56
2022-11-21T12:19:52.252Z,100382.63
2022-11-21T12:22:24.203Z,100385.41
2022-11-21T12:24:56.204Z,100373.34
2022-11-21T12:27:32.155Z,100376.81
2022-11-21T12:31:10.977Z,100372.72
2022-11-21T12:34:22.111Z,100369.97
2022-11-21T12:37:51.450Z,100356.91
2022-11-21T12:40:50.827Z,100357.09
2022-11-21T12:43:49.887Z,100358.75
2022-11-21T12:46:39.569Z,100371.78
2022-11-21T12:50:22.358Z,100352.06
2022-11-21T12:53:23.133Z,100340.91
2022-11-21T12:56:06.358Z,100338.44
2022-11-21T12:58:42.788Z,100335.88
2022-11-21T13:01:55.571Z,100337.66
2022-11-21T13:04:35.215Z,100334.03
2022-11-21T13:07:08.601Z,100326.91
2022-11-21T13:09:47.522Z,100324.34
2022-11-21T13:12:52.124Z,100324.34
2022-11-21T13:15:38.725Z,100320.91
2022-11-21T13:18:36.506Z,100326.91
2022-11-21T13:21:47.774Z,100329.47
2022-11-21T13:24:44.670Z,100330.38
2022-11-21T13:27:39.138Z,100337.22
2022-11-21T13:30:11.487Z,100328.56
2022-11-21T13:32:54.796Z,100325.06
2022-11-21T13:35:26.777Z,100325.09
2022-11-21T13:38:10.341Z,100323.50
2022-11-21T13:41:02.336Z,100309.72
2022-11-21T13:43:35.374Z,100309.72
2022-11-21T13:46:07.909Z,100311.47
2022-11-21T13:49:12.678Z,100309.84
2022-11-21T13:51:53.776Z,100306.25
2022-11-21T13:54:52.280Z,100305.41
2022-11-21T13:57:27.117Z,100308.81
2022-11-21T14:00:26.501Z,100306.19
2022-11-21T14:03:16.924Z,100300.13
2022-11-21T14:05:59.718Z,100288.91
2022-11-21T14:08:31.974Z,100294.94
2022-11-21T14:11:38.466Z,100286.22
2022-11-21T14:14:10.738Z,100279.34
2022-11-21T14:16:48.969Z,100282.66
2022-11-21T14:19:21.189Z,100279.19
2022-11-21T14:21:55.439Z,100277.41
2022-11-21T14:24:28.364Z,100280.88
2022-11-21T14:27:01.047Z,100278.22
2022-11-21T14:29:41.255Z,100271.19
2022-11-21T14:32:19.304Z,100271.03
2022-11-21T14:34:51.303Z,100280.34
2022-11-21T14:37:23.390Z,100271.59
2022-11-21T14:39:57.384Z,100274.94
2022-11-21T14:42:39.360Z,100280.91
2022-11-21T14:45:21.984Z,100278.31
2022-11-21T14:47:54.514Z,100273.06
2022-11-21T14:50:30.006Z,100278.16
2022-11-21T14:53:04.314Z,100258.34
2022-11-21T14:55:36.261Z,100252.28
2022-11-21T14:58:10.358Z,100244.50
2022-11-21T15:03:35.263Z,100223.63
2022-11-21T15:06:11.338Z,100224.50
2022-11-21T15:11:53.455Z,100226.09
2022-11-21T15:14:38.016Z,100216.59
2022-11-21T15:17:16.449Z,100218.28
2022-11-21T15:20:23.347Z,100209.59
2022-11-21T15:23:01.378Z,100210.38
2022-11-21T15:25:47.246Z,100199.13
2022-11-21T15:28:19.646Z,100200.00
2022-11-21T15:31:18.651Z,100193.97
2022-11-21T15:37:04.035Z,100194.72
2022-11-21T15:39:36.292Z,100189.56
2022-11-21T15:42:37.274Z,100180.00
2022-11-21T15:45:19.813Z,100172.13
2022-11-21T15:48:07.729Z,100168.56
2022-11-21T15:50:40.000Z,100172.84
2022-11-21T15:53:19.374Z,100176.22
2022-11-21T15:55:51.855Z,100166.69
2022-11-21T15:57:14.328Z,100197.34
2022-11-21T15:58:23.858Z,100169.22
2022-11-21T16:00:55.864Z,100175.25
2022-11-21T16:03:27.924Z,100177.84
2022-11-21T16:05:59.922Z,100188.81
2022-11-21T16:08:32.011Z,100183.59
2022-11-21T16:11:04.158Z,100186.19
2022-11-21T16:13:36.135Z,100170.69
2022-11-21T16:16:13.718Z,100176.72
2022-11-21T16:18:47.005Z,100174.94
2022-11-21T16:21:20.113Z,100177.44
2022-11-21T16:23:52.652Z,100172.94
2022-11-21T16:26:30.817Z,100169.56
2022-11-21T16:29:05.835Z,100168.69
2022-11-21T16:31:37.864Z,100163.44
2022-11-21T16:34:09.847Z,100155.69
2022-11-21T16:36:41.787Z,100155.66
2022-11-21T16:39:18.173Z,100159.91
2022-11-21T16:41:50.693Z,100153.84
2022-11-21T16:44:22.612Z,100153.81
2022-11-21T16:46:55.538Z,100148.66
2022-11-21T16:49:27.723Z,100150.25
2022-11-21T16:51:59.905Z,100141.72
2022-11-21T16:54:31.822Z,100139.09
2022-11-21T16:57:03.842Z,100139.03
2022-11-21T16:59:35.841Z,100134.72
2022-11-21T17:02:07.790Z,100127.06
2022-11-21T17:04:39.713Z,100124.47
2022-11-21T17:07:11.933Z,100122.66
2022-11-21T17:09:44.010Z,100124.28
2022-11-21T17:12:16.085Z,100125.06
2022-11-21T17:14:48.248Z,100120.78
2022-11-21T17:17:20.284Z,100112.16
2022-11-21T17:19:54.610Z,100112.00
2022-11-21T17:22:26.820Z,100100.94
2022-11-21T17:24:58.797Z,100094.19
2022-11-21T17:27:30.766Z,100094.94
2022-11-21T17:30:02.747Z,100086.25
2022-11-21T17:32:35.445Z,100078.63
2022-11-21T17:35:08.216Z,100072.69
2022-11-21T17:37:40.482Z,100064.13
2022-11-21T17:40:13.091Z,100064.13
2022-11-21T17:42:45.038Z,100064.97
2022-11-21T17:45:17.120Z,100059.84
2022-11-21T17:47:49.097Z,100053.06
2022-11-21T17:50:21.249Z,100047.88
2022-11-21T17:52:53.312Z,100051.13
2022-11-21T17:55:25.301Z,100028.88
2022-11-21T17:57:57.236Z,100025.44
2022-11-21T18:00:29.309Z,100022.78
2022-11-21T18:03:01.259Z,100024.44
2022-11-21T18:05:33.192Z,100024.28
2022-11-21T18:08:05.280Z,100010.31
2022-11-21T18:10:43.228Z,100012.06
2022-11-21T18:13:16.025Z,100006.94
2022-11-21T18:15:48.204Z,100000.88
2022-11-21T18:18:20.319Z,99994.88
2022-11-21T18:20:52.242Z,99995.75
2022-11-21T18:23:24.212Z,99991.47
2022-11-21T18:25:56.312Z,99987.03
2022-11-21T18:28:28.274Z,99988.81
2022-11-21T18:31:19.696Z,99978.47
2022-11-21T18:33:55.159Z,99976.84
2022-11-21T18:36:29.308Z,99975.16
2022-11-21T18:39:07.215Z,99987.13
2022-11-21T18:41:44.234Z,99975.91
2022-11-21T18:44:21.664Z,99951.66
2022-11-21T18:46:54.307Z,99963.75
2022-11-21T18:49:26.535Z,99940.75
2022-11-21T18:51:59.609Z,99938.16
2022-11-21T18:54:31.644Z,99948.41
2022-11-21T18:57:03.896Z,99944.16
2022-11-21T18:59:35.851Z,99954.50
2022-11-21T19:02:09.359Z,99939.81
2022-11-21T19:04:41.358Z,99949.25
2022-11-21T19:07:13.361Z,99942.38
2022-11-21T19:09:46.586Z,99934.50
2022-11-21T19:12:18.724Z,99931.84
2022-11-21T19:14:52.086Z,99928.47
2022-11-21T19:17:24.044Z,99939.50
2022-11-21T19:19:56.075Z,99942.13
2022-11-21T19:22:28.037Z,99952.41
2022-11-21T19:24:59.989Z,99960.22
2022-11-21T19:27:31.940Z,99967.81
2022-11-21T19:30:04.412Z,99960.13
2022-11-21T19:32:36.848Z,99961.91
2022-11-21T19:35:09.302Z,99960.97
2022-11-21T19:37:41.284Z,99953.22
2022-11-21T19:40:14.123Z,99948.09
2022-11-21T19:42:46.109Z,99952.25
2022-11-21T19:45:18.229Z,99947.16
2022-11-21T19:47:56.937Z,99946.41
2022-11-21T19:50:28.910Z,99948.00
2022-11-21T19:53:00.850Z,99950.59
2022-11-21T19:55:32.821Z,99954.78
2022-11-21T19:58:04.783Z,99954.78
2022-11-21T20:00:36.755Z,99953.91
2022-11-21T20:03:09.880Z,99944.47
2022-11-21T20:05:41.832Z,99942.84
2022-11-21T20:08:17.675Z,99943.75
2022-11-21T20:10:50.214Z,99950.63
2022-11-21T20:13:22.151Z,99954.81
2022-11-21T20:15:54.145Z,99954.91
2022-11-21T20:18:26.082Z,99956.50
2022-11-21T20:20:58.137Z,99959.09
2022-11-21T20:23:30.094Z,99954.69
2022-11-21T20:26:02.530Z,99949.53
2022-11-21T20:28:36.441Z,99946.19
2022-11-21T20:31:12.556Z,99941.28
2022-11-21T20:33:48.358Z,99934.44
2022-11-21T20:36:23.618Z,99926.69
2022-11-21T20:38:59.167Z,99937.00
2022-11-21T20:41:34.295Z,99937.13
2022-11-21T20:47:08.879Z,99941.66
2022-11-21T20:49:40.854Z,99942.69
2022-11-21T20:55:05.660Z,99934.19
2022-11-21T20:57:37.690Z,99937.59
2022-11-21T21:00:11.731Z,99918.75
2022-11-21T21:02:43.685Z,99907.53
2022-11-21T21:05:15.751Z,99903.94
2022-11-21T21:07:47.737Z,99902.13
2022-11-21T21:10:22.747Z,99905.44
2022-11-21T21:12:54.759Z,99903.78
2022-11-21T21:15:26.755Z,99906.47
2022-11-21T21:17:59.779Z,99901.22
2022-11-21T21:20:36.462Z,99895.25
2022-11-21T21:23:21.389Z,99911.50
2022-11-21T21:25:53.402Z,99904.69
2022-11-21T21:28:25.359Z,99921.03
2022-11-21T21:30:57.500Z,99912.31
2022-11-21T21:33:29.487Z,99924.34
2022-11-21T21:36:11.520Z,99918.31
2022-11-21T21:38:44.678Z,99917.53
2022-11-21T21:41:16.778Z,99915.75
2022-11-21T21:43:53.807Z,99911.34
2022-11-21T21:46:27.811Z,99920.06
2022-11-21T21:48:59.913Z,99903.88
2022-11-21T21:51:32.488Z,99896.25
2022-11-21T21:54:05.238Z,99893.72
2022-11-21T21:56:37.175Z,99886.13
2022-11-21T21:59:09.627Z,99893.03
2022-11-21T22:01:42.956Z,99885.34
2022-11-21T22:04:14.987Z,99887.84
2022-11-21T22:06:46.917Z,99883.72
2022-11-21T22:09:19.467Z,99877.03
2022-11-21T22:11:51.398Z,99865.84
2022-11-21T22:14:23.372Z,99862.53
2022-11-21T22:16:55.395Z,99852.88
2022-11-21T22:19:28.330Z,99852.25
2022-11-21T22:22:00.374Z,99851.38
2022-11-21T22:24:32.373Z,99846.47
2022-11-21T22:27:04.438Z,99838.50
2022-11-21T22:29:36.452Z,99843.72
2022-11-21T22:32:08.415Z,99831.78
2022-11-21T22:34:40.388Z,99824.03
2022-11-21T22:37:12.445Z,99822.47
2022-11-21T22:39:44.561Z,99816.28
2022-11-21T22:42:16.544Z,99807.81
2022-11-21T22:44:48.526Z,99790.72
2022-11-21T22:47:21.528Z,99795.97
2022-11-21T22:49:53.557Z,99793.44
2022-11-21T22:52:25.791Z,99797.69
2022-11-21T22:54:57.796Z,99802.88
2022-11-21T22:57:29.740Z,99796.75
2022-11-21T23:00:02.339Z,99790.50
2022-11-21T23:02:35.597Z,99787.06
2022-11-21T23:05:08.060Z,99790.63
2022-11-21T23:07:40.165Z,99784.66
2022-11-21T23:10:12.612Z,99783.03
2022-11-21T23:12:44.587Z,99796.97
2022-11-21T23:15:16.745Z,99783.94
2022-11-21T23:17:52.618Z,99790.09
2022-11-21T23:20:25.406Z,99783.88
2022-11-21T23:22:57.553Z,99782.97
2022-11-21T23:25:29.545Z,99788.19
2022-11-21T23:28:01.446Z,99784.81
2022-11-21T23:30:33.481Z,99767.72
2022-11-21T23:33:05.436Z,99766.06
2022-11-21T23:35:37.865Z,99774.59
2022-11-21T23:38:10.845Z,99763.19
2022-11-21T23:40:46.307Z,99765.78
2022-11-21T23:43:19.271Z,99761.56
2022-11-21T23:45:52.831Z,99774.53
2022-11-21T23:48:25.000Z,99768.56
2022-11-21T23:50:57.059Z,99756.63
2022-11-21T23:53:29.125Z,99756.69
2022-11-21T23:56:01.176Z,99751.56
2022-11-21T23:58:33.191Z,99756.72
